Time;durP1;ratioP1;P1;durP2;ratioP2;P2;SDS_P1;SDS_P2;PMS_P1;PMS_P2;Temp;Humidity;BMP_temperature;BMP_pressure;BME280_temperature;BME280_humidity;BME280_pressure;Samples;Min_cycle;Max_cycle;Signal;HPM_P1;HPM_P2
2022/07/14 00:02:05;;;;;;;1.30;1.02;;;23.50;55.60;;;;;;5027160;28;20033;-68
2022/07/14 00:04:31;;;;;;;1.42;1.17;;;23.50;56.10;;;;;;5025681;28;20800;-67
2022/07/14 00:06:56;;;;;;;1.52;1.40;;;23.50;56.20;;;;;;5025769;28;20116;-68
2022/07/14 00:09:22;;;;;;;1.00;1.00;;;23.50;56.20;;;;;;5025402;28;20031;-68
2022/07/14 00:11:47;;;;;;;1.45;0.80;;;23.50;56.20;;;;;;5025630;28;20018;-68
2022/07/14 00:14:13;;;;;;;1.40;0.95;;;23.50;56.30;;;;;;5025921;28;20026;-68
2022/07/14 00:16:38;;;;;;;1.40;0.98;;;23.50;56.30;;;;;;5005243;28;20491;-68
2022/07/14 00:19:03;;;;;;;1.88;1.10;;;23.50;56.30;;;;;;5003543;28;20025;-69
2022/07/14 00:21:29;;;;;;;0.88;0.80;;;23.50;56.40;;;;;;5020760;28;20494;-67
2022/07/14 00:23:54;;;;;;;1.10;0.90;;;23.50;56.40;;;;;;5025514;28;20037;-67
2022/07/14 00:26:20;;;;;;;1.50;1.15;;;23.50;56.40;;;;;;5025423;28;20022;-68
2022/07/14 00:28:45;;;;;;;1.45;0.90;;;23.50;56.50;;;;;;5025247;28;20026;-67
2022/07/14 00:31:11;;;;;;;1.17;0.93;;;23.50;56.50;;;;;;5025192;28;20099;-68
2022/07/14 00:33:38;;;;;;;1.77;1.10;;;23.50;56.60;;;;;;5023819;28;20118;-68
2022/07/14 00:36:03;;;;;;;1.50;0.85;;;23.50;56.60;;;;;;5024246;28;20113;-67
2022/07/14 00:38:29;;;;;;;1.40;0.70;;;23.50;56.60;;;;;;5024842;28;20125;-65
2022/07/14 00:40:54;;;;;;;1.38;1.00;;;23.50;56.60;;;;;;5025033;28;20124;-68
2022/07/14 00:43:20;;;;;;;2.05;0.90;;;23.50;56.70;;;;;;5024472;28;20103;-68
2022/07/14 00:45:45;;;;;;;0.98;0.88;;;23.50;56.70;;;;;;5024944;28;20049;-68
2022/07/14 00:48:14;;;;;;;3.00;1.15;;;23.50;56.70;;;;;;5024460;28;20090;-65
2022/07/14 00:50:41;;;;;;;2.13;0.90;;;23.50;56.80;;;;;;5023781;28;20104;-68
2022/07/14 00:53:07;;;;;;;1.08;0.90;;;23.50;57.40;;;;;;5008214;28;20137;-68
2022/07/14 00:55:33;;;;;;;1.10;1.00;;;23.50;56.80;;;;;;5023263;28;21608;-68
2022/07/14 00:57:58;;;;;;;2.42;0.88;;;23.50;57.00;;;;;;5024058;28;20093;-67
2022/07/14 01:00:24;;;;;;;1.38;0.88;;;23.50;56.80;;;;;;5023933;28;20030;-68
2022/07/14 01:02:49;;;;;;;1.55;1.20;;;23.50;56.90;;;;;;5023489;28;20026;-68
2022/07/14 01:05:15;;;;;;;0.90;0.73;;;23.50;56.90;;;;;;5024162;28;20037;-68
2022/07/14 01:07:41;;;;;;;1.20;0.82;;;23.50;56.90;;;;;;5023829;28;20165;-68
2022/07/14 01:10:07;;;;;;;1.08;0.98;;;23.50;56.90;;;;;;5024787;28;20037;-68
2022/07/14 01:12:32;;;;;;;1.55;1.00;;;23.50;56.90;;;;;;4998288;28;20037;-67
2022/07/14 01:14:58;;;;;;;1.00;1.00;;;23.50;57.10;;;;;;5023075;28;20033;-67
2022/07/14 01:17:23;;;;;;;2.13;0.98;;;23.50;57.00;;;;;;5023895;28;20038;-68
2022/07/14 01:19:49;;;;;;;2.78;0.73;;;23.50;57.10;;;;;;5024253;28;20022;-68
2022/07/14 01:22:14;;;;;;;1.33;0.80;;;23.50;57.20;;;;;;5024104;28;20612;-68
2022/07/14 01:24:40;;;;;;;1.05;0.95;;;23.50;57.10;;;;;;5022988;28;20021;-68
2022/07/14 01:27:05;;;;;;;1.30;0.80;;;23.50;57.20;;;;;;5023286;28;20031;-67
2022/07/14 01:29:31;;;;;;;1.25;0.90;;;23.50;57.20;;;;;;5022553;28;20022;-68
2022/07/14 01:31:56;;;;;;;2.33;0.80;;;23.40;57.10;;;;;;5023867;28;20025;-69
2022/07/14 01:34:22;;;;;;;1.50;0.90;;;23.50;57.10;;;;;;5023089;28;20109;-68
2022/07/14 01:36:49;;;;;;;1.13;0.90;;;23.50;57.20;;;;;;5023939;28;20052;-68
2022/07/14 01:39:14;;;;;;;2.05;0.80;;;23.50;57.20;;;;;;5002683;28;20026;-68
2022/07/14 01:41:40;;;;;;;1.67;0.95;;;23.40;57.20;;;;;;5003763;28;20079;-68
2022/07/14 01:44:05;;;;;;;1.20;0.80;;;23.50;57.30;;;;;;5021360;28;20026;-68
2022/07/14 01:46:31;;;;;;;1.95;0.93;;;23.40;57.20;;;;;;5023680;28;20406;-68
2022/07/14 01:48:56;;;;;;;2.00;0.98;;;23.50;57.30;;;;;;5023474;28;20033;-68
2022/07/14 01:51:22;;;;;;;1.90;1.10;;;23.40;57.20;;;;;;5023656;28;20048;-67
2022/07/14 01:53:48;;;;;;;1.83;1.00;;;23.50;57.20;;;;;;5022070;28;20025;-67
2022/07/14 01:56:13;;;;;;;0.77;0.63;;;23.50;57.30;;;;;;5024017;28;20514;-65
2022/07/14 01:58:39;;;;;;;1.08;1.02;;;23.40;57.30;;;;;;5023504;28;20022;-68
2022/07/14 02:03:53;;;;;;;3.15;0.90;;;23.40;57.40;;;;;;5008465;28;20575;-68
2022/07/14 02:06:19;;;;;;;2.20;0.85;;;23.40;57.40;;;;;;5023241;28;20029;-68
2022/07/14 02:08:44;;;;;;;1.75;1.30;;;23.40;57.40;;;;;;5021899;28;20049;-68
2022/07/14 02:13:53;;;;;;;0.95;0.82;;;23.40;57.40;;;;;;5022636;28;20106;-67
2022/07/14 02:16:20;;;;;;;1.10;0.93;;;23.40;57.50;;;;;;5022415;28;20050;-68
2022/07/14 02:18:45;;;;;;;3.17;1.27;;;23.40;57.50;;;;;;5022632;28;20021;-68
2022/07/14 02:21:10;;;;;;;1.13;1.00;;;23.40;57.50;;;;;;5024702;28;20087;-65
2022/07/14 02:23:36;;;;;;;1.17;1.05;;;23.40;57.50;;;;;;5026297;28;20037;-68
2022/07/14 02:26:02;;;;;;;1.13;1.02;;;23.40;57.60;;;;;;5026173;28;20117;-67
2022/07/14 02:28:27;;;;;;;1.17;0.80;;;23.40;57.60;;;;;;5025631;28;20212;-67
2022/07/14 02:30:52;;;;;;;1.27;1.17;;;23.40;57.60;;;;;;5025611;28;20029;-68
2022/07/14 02:33:18;;;;;;;1.60;1.20;;;23.40;57.60;;;;;;5023860;28;20034;-68
2022/07/14 02:35:44;;;;;;;1.92;1.08;;;23.40;57.60;;;;;;5022458;28;20030;-67
2022/07/14 02:38:10;;;;;;;2.03;0.90;;;23.40;57.60;;;;;;5022067;28;20022;-68
2022/07/14 02:40:35;;;;;;;1.98;1.33;;;23.40;57.60;;;;;;5021815;28;20037;-68
2022/07/14 02:43:01;;;;;;;1.38;1.23;;;23.40;57.60;;;;;;5021103;28;20041;-68
2022/07/14 02:45:27;;;;;;;1.40;1.30;;;23.40;57.60;;;;;;5022665;28;20039;-67
2022/07/14 02:47:52;;;;;;;2.47;1.10;;;23.30;57.50;;;;;;5022940;28;20113;-67
2022/07/14 02:50:18;;;;;;;2.30;1.40;;;23.40;57.60;;;;;;5021861;28;20036;-66
2022/07/14 02:52:43;;;;;;;1.63;1.25;;;23.30;57.50;;;;;;5022467;28;20034;-68
2022/07/14 02:55:09;;;;;;;1.10;1.00;;;23.40;57.60;;;;;;5020430;28;20033;-68
2022/07/14 02:57:34;;;;;;;1.48;1.38;;;23.30;57.50;;;;;;5022772;28;20195;-67
2022/07/14 03:00:00;;;;;;;1.77;1.25;;;23.40;57.60;;;;;;5004239;28;20040;-67
2022/07/14 03:02:25;;;;;;;1.30;1.20;;;23.40;57.70;;;;;;5020825;28;20559;-67
2022/07/14 03:04:51;;;;;;;1.65;1.30;;;23.30;57.60;;;;;;5020985;28;20022;-67
2022/07/14 03:07:17;;;;;;;3.13;1.25;;;23.30;57.60;;;;;;5022178;28;20026;-68
2022/07/14 03:09:42;;;;;;;1.73;0.98;;;23.30;57.60;;;;;;5020719;28;20402;-68
2022/07/14 03:12:08;;;;;;;1.60;1.20;;;23.30;57.70;;;;;;5023011;28;20021;-67
2022/07/14 03:14:33;;;;;;;1.60;1.05;;;23.30;57.50;;;;;;5021123;28;21559;-68
2022/07/14 03:16:58;;;;;;;1.40;1.30;;;23.30;57.80;;;;;;5022771;28;20026;-68
2022/07/14 03:19:24;;;;;;;2.38;1.17;;;23.30;57.70;;;;;;5021891;28;20029;-68
2022/07/14 03:21:49;;;;;;;2.88;1.23;;;23.30;57.70;;;;;;5004940;28;20508;-68
2022/07/14 03:24:15;;;;;;;3.03;1.40;;;23.30;57.60;;;;;;5022444;28;20033;-68
2022/07/14 03:26:41;;;;;;;1.90;1.52;;;23.30;57.40;;;;;;5021142;28;20037;-67
2022/07/14 03:29:07;;;;;;;4.13;1.65;;;23.30;57.50;;;;;;5022522;28;20520;-68
2022/07/14 03:31:33;;;;;;;3.47;1.30;;;23.20;57.50;;;;;;5021203;28;20029;-68
2022/07/14 03:33:59;;;;;;;4.82;1.92;;;23.20;57.40;;;;;;5029448;28;20383;-67
2022/07/14 03:36:24;;;;;;;2.40;2.10;;;23.20;57.30;;;;;;5022229;28;20030;-67
2022/07/14 03:38:50;;;;;;;4.28;1.70;;;23.20;57.10;;;;;;5021185;28;20033;-68
2022/07/14 03:41:15;;;;;;;2.40;1.70;;;23.20;57.10;;;;;;5022319;28;20029;-65
2022/07/14 03:43:41;;;;;;;2.13;1.85;;;23.20;57.10;;;;;;5022375;28;20530;-68
2022/07/14 03:46:07;;;;;;;3.20;1.90;;;23.20;57.10;;;;;;5021699;28;20057;-67
2022/07/14 03:48:33;;;;;;;2.10;1.90;;;23.20;57.00;;;;;;5021411;28;20048;-67
2022/07/14 03:50:58;;;;;;;4.55;2.33;;;23.20;57.00;;;;;;5024826;28;20508;-67
2022/07/14 03:53:24;;;;;;;6.93;2.20;;;23.20;57.00;;;;;;5024954;28;20045;-67
2022/07/14 03:55:49;;;;;;;1.90;1.80;;;23.10;57.00;;;;;;5025843;28;20099;-67
2022/07/14 03:58:15;;;;;;;3.45;2.10;;;23.10;56.90;;;;;;5008152;28;20068;-67
2022/07/14 04:00:40;;;;;;;2.17;1.98;;;23.10;56.90;;;;;;5025305;28;20608;-67
2022/07/14 04:03:06;;;;;;;4.15;2.33;;;23.10;57.00;;;;;;5026472;28;20594;-64
2022/07/14 04:05:32;;;;;;;2.22;2.03;;;23.10;57.00;;;;;;5027351;28;20132;-67
2022/07/14 04:07:57;;;;;;;3.75;1.85;;;23.10;56.90;;;;;;5025555;28;20029;-66
2022/07/14 04:10:23;;;;;;;2.95;2.38;;;23.10;57.00;;;;;;5025242;28;20033;-67
2022/07/14 04:12:48;;;;;;;3.67;2.13;;;23.10;57.00;;;;;;5025757;28;20734;-66
2022/07/14 04:15:14;;;;;;;4.60;1.92;;;23.10;57.10;;;;;;5025672;28;20383;-67
2022/07/14 04:17:39;;;;;;;1.85;1.75;;;23.10;57.10;;;;;;5025703;28;20671;-67
2022/07/14 04:20:05;;;;;;;5.43;1.98;;;23.10;57.10;;;;;;5024782;28;20056;-67
2022/07/14 04:22:31;;;;;;;2.83;2.03;;;23.10;57.10;;;;;;5025671;28;20037;-67
2022/07/14 04:24:56;;;;;;;2.40;2.20;;;23.10;57.20;;;;;;5024493;28;20028;-69
2022/07/14 04:27:22;;;;;;;7.05;3.38;;;23.10;57.30;;;;;;5025836;28;20429;-66
2022/07/14 04:29:47;;;;;;;8.55;2.67;;;23.10;57.30;;;;;;5024723;28;20117;-65
2022/07/14 04:32:13;;;;;;;8.25;2.25;;;23.10;57.50;;;;;;5025356;28;20034;-67
2022/07/14 04:34:39;;;;;;;9.48;2.20;;;23.10;57.60;;;;;;5025541;28;20123;-68
2022/07/14 04:37:04;;;;;;;14.95;3.22;;;23.10;57.70;;;;;;5026276;28;20029;-67
2022/07/14 04:39:30;;;;;;;11.40;2.83;;;23.10;57.70;;;;;;5026156;28;20309;-68
2022/07/14 04:41:55;;;;;;;10.98;3.10;;;23.10;57.70;;;;;;5024813;28;20026;-67
2022/07/14 04:44:21;;;;;;;14.95;3.67;;;23.10;57.70;;;;;;5027303;28;20644;-67
2022/07/14 04:46:46;;;;;;;15.40;3.38;;;23.10;57.80;;;;;;5026870;28;20086;-67
2022/07/14 04:52:02;;;;;;;9.48;2.88;;;23.10;57.90;;;;;;5025170;28;20075;-67
2022/07/14 04:54:32;;;;;;;17.63;4.03;;;23.10;57.90;;;;;;5025252;28;20269;-68
2022/07/14 04:56:57;;;;;;;21.17;3.70;;;23.10;57.80;;;;;;5024431;28;20195;-66
2022/07/14 04:59:23;;;;;;;19.88;3.58;;;23.10;57.90;;;;;;5022947;28;20536;-67
2022/07/14 05:01:48;;;;;;;15.20;3.25;;;23.20;58.10;;;;;;5023756;28;20022;-67
2022/07/14 05:04:14;;;;;;;17.60;3.65;;;23.20;58.10;;;;;;5024954;28;20541;-68
2022/07/14 05:06:39;;;;;;;13.18;3.50;;;23.10;58.20;;;;;;5023395;28;20025;-67
2022/07/14 05:09:05;;;;;;;10.13;3.25;;;23.20;58.30;;;;;;5024631;28;20541;-67
2022/07/14 05:11:30;;;;;;;8.30;3.55;;;23.10;58.30;;;;;;5023518;28;20033;-67
2022/07/14 05:13:56;;;;;;;7.70;3.20;;;23.20;58.40;;;;;;5023311;28;20108;-68
2022/07/14 05:16:21;;;;;;;6.00;2.83;;;23.20;58.40;;;;;;5003530;28;20445;-67
2022/07/14 05:18:47;;;;;;;6.28;2.60;;;23.20;58.30;;;;;;5019607;28;20029;-66
2022/07/14 05:21:13;;;;;;;7.80;2.90;;;23.20;58.30;;;;;;5022692;28;20033;-67
2022/07/14 05:23:38;;;;;;;8.98;3.17;;;23.20;58.10;;;;;;5024049;28;20091;-67
2022/07/14 05:26:11;;;;;;;6.28;3.70;;;23.20;58.00;;;;;;5023631;28;20041;-67
2022/07/14 05:28:37;;;;;;;7.13;2.85;;;23.20;58.00;;;;;;5024379;28;20100;-67
2022/07/14 05:31:02;;;;;;;6.82;2.97;;;23.20;58.00;;;;;;5024199;28;20687;-68
2022/07/14 05:33:27;;;;;;;9.27;3.92;;;23.20;57.90;;;;;;5024067;28;20029;-67
2022/07/14 05:35:54;;;;;;;5.00;2.78;;;23.10;57.20;;;;;;5024696;28;20084;-67
2022/07/14 05:38:20;;;;;;;5.20;2.85;;;23.10;57.80;;;;;;5005959;28;20607;-69
2022/07/14 05:40:46;;;;;;;5.07;2.65;;;23.00;57.90;;;;;;5004910;28;20038;-68
2022/07/14 05:43:11;;;;;;;5.60;2.97;;;23.00;57.90;;;;;;5021112;28;20439;-69
2022/07/14 05:45:37;;;;;;;7.10;3.03;;;23.00;57.70;;;;;;5024817;28;20107;-67
2022/07/14 05:48:03;;;;;;;8.25;2.97;;;23.10;57.60;;;;;;5023927;28;20640;-68
2022/07/14 05:50:28;;;;;;;5.63;3.25;;;23.10;57.50;;;;;;5023352;28;20038;-67
2022/07/14 05:52:54;;;;;;;5.07;2.78;;;23.10;57.50;;;;;;5022313;28;20460;-67
2022/07/14 05:55:21;;;;;;;8.88;3.08;;;23.10;57.50;;;;;;5023408;28;20060;-66
2022/07/14 05:57:47;;;;;;;8.32;3.40;;;23.10;57.50;;;;;;5021988;28;20025;-67
2022/07/14 06:00:12;;;;;;;12.68;3.28;;;23.10;57.60;;;;;;5021914;28;20025;-66
2022/07/14 06:02:38;;;;;;;8.95;3.88;;;23.10;58.50;;;;;;5024016;28;20087;-66
2022/07/14 06:05:04;;;;;;;14.85;4.15;;;23.10;58.10;;;;;;5023657;28;20035;-67
2022/07/14 06:07:29;;;;;;;16.33;4.15;;;23.10;58.30;;;;;;5023440;28;20649;-66
2022/07/14 06:09:55;;;;;;;12.25;3.97;;;23.10;58.10;;;;;;5022952;28;20032;-66
2022/07/14 06:12:20;;;;;;;8.73;3.15;;;23.10;58.20;;;;;;5022794;28;20029;-66
2022/07/14 06:14:46;;;;;;;9.50;3.58;;;23.10;58.20;;;;;;5022634;28;20022;-66
2022/07/14 06:17:11;;;;;;;14.57;4.13;;;23.10;58.20;;;;;;5022845;28;20529;-67
2022/07/14 06:19:37;;;;;;;15.70;4.05;;;23.10;58.10;;;;;;5022884;28;20026;-66
2022/07/14 06:22:05;;;;;;;10.40;3.30;;;23.10;58.20;;;;;;5022952;28;20026;-66
2022/07/14 06:24:43;;;;;;;14.80;4.35;;;23.10;58.10;;;;;;5023865;28;20037;-67
2022/07/14 06:27:09;;;;;;;7.72;3.33;;;23.10;58.20;;;;;;5025214;28;20098;-67
2022/07/14 06:29:34;;;;;;;11.68;3.60;;;23.10;58.40;;;;;;5022391;28;20493;-67
2022/07/14 06:32:00;;;;;;;10.13;3.15;;;23.10;58.40;;;;;;5025753;28;20033;-67
2022/07/14 06:34:25;;;;;;;10.35;3.35;;;23.10;58.30;;;;;;5023973;28;20026;-67
2022/07/14 06:36:51;;;;;;;9.27;3.20;;;23.10;58.10;;;;;;5021529;28;20017;-66
2022/07/14 06:39:16;;;;;;;10.82;3.92;;;23.10;58.10;;;;;;5022457;28;20036;-67
2022/07/14 06:41:42;;;;;;;10.52;3.30;;;23.10;58.10;;;;;;5021561;28;20083;-66
2022/07/14 06:44:08;;;;;;;7.78;2.95;;;23.10;58.70;;;;;;5021815;28;20029;-67
2022/07/14 06:46:33;;;;;;;15.55;3.30;;;23.10;58.70;;;;;;5022623;28;20033;-67
2022/07/14 06:48:59;;;;;;;13.60;3.53;;;23.10;59.20;;;;;;5022057;28;20025;-67
2022/07/14 06:51:25;;;;;;;11.23;3.08;;;23.00;58.30;;;;;;5022831;28;20056;-64
2022/07/14 06:53:51;;;;;;;11.32;3.03;;;23.10;58.20;;;;;;5021836;28;20882;-66
2022/07/14 06:56:17;;;;;;;11.48;3.08;;;23.10;58.10;;;;;;5022633;28;20041;-66
2022/07/14 06:58:42;;;;;;;11.55;3.47;;;23.10;58.40;;;;;;5022619;28;20165;-66
2022/07/14 07:01:08;;;;;;;9.25;2.65;;;23.10;58.40;;;;;;5023135;28;20042;-67
2022/07/14 07:03:33;;;;;;;10.93;2.95;;;23.10;58.20;;;;;;5022186;28;20029;-66
2022/07/14 07:08:42;;;;;;;11.82;3.00;;;23.00;58.00;;;;;;5021157;28;20032;-67
2022/07/14 07:11:09;;;;;;;12.63;3.70;;;23.00;57.70;;;;;;5019852;28;20029;-67
2022/07/14 07:13:35;;;;;;;11.57;3.13;;;23.00;57.70;;;;;;5018977;28;20105;-66
2022/07/14 07:16:04;;;;;;;14.35;2.67;;;23.10;57.80;;;;;;5019847;28;20164;-67
2022/07/14 07:18:30;;;;;;;7.55;3.05;;;23.00;57.70;;;;;;5021281;28;20033;-66
2022/07/14 07:20:57;;;;;;;12.43;3.03;;;23.10;57.70;;;;;;5021682;28;20056;-66
2022/07/14 07:23:22;;;;;;;9.35;3.15;;;23.10;57.70;;;;;;5020568;28;20583;-67
2022/07/14 07:25:47;;;;;;;6.68;2.20;;;23.10;57.80;;;;;;5025460;28;20072;-67
2022/07/14 07:28:13;;;;;;;9.38;2.20;;;23.00;57.70;;;;;;5025692;28;20022;-67
2022/07/14 07:30:38;;;;;;;4.90;2.60;;;23.10;57.80;;;;;;5026585;28;20410;-66
2022/07/14 07:33:04;;;;;;;7.45;2.60;;;23.10;57.80;;;;;;5026210;28;20079;-67
2022/07/14 07:35:29;;;;;;;3.42;2.40;;;23.00;57.70;;;;;;5026053;28;20037;-66
2022/07/14 07:37:55;;;;;;;7.28;2.55;;;23.10;57.80;;;;;;5026049;28;20736;-67
2022/07/14 07:40:20;;;;;;;4.68;2.45;;;23.10;57.90;;;;;;5006363;28;20041;-67
2022/07/14 07:42:46;;;;;;;4.88;2.10;;;23.10;57.90;;;;;;5006005;28;20100;-67
2022/07/14 07:45:11;;;;;;;4.93;2.38;;;23.10;57.90;;;;;;5024126;28;20021;-67
2022/07/14 07:47:37;;;;;;;5.18;2.45;;;23.10;58.00;;;;;;5026268;28;20044;-66
2022/07/14 07:50:03;;;;;;;4.45;2.60;;;23.00;58.00;;;;;;5023594;28;20091;-67
2022/07/14 07:52:28;;;;;;;4.78;2.60;;;23.10;58.10;;;;;;5024736;28;20403;-67
2022/07/14 07:54:54;;;;;;;4.18;2.53;;;23.00;58.10;;;;;;5025827;28;20022;-66
2022/07/14 07:57:20;;;;;;;5.68;2.40;;;23.10;58.20;;;;;;5025745;28;20033;-67
2022/07/14 07:59:49;;;;;;;7.53;3.28;;;23.00;58.30;;;;;;5025445;28;20021;-67
2022/07/14 08:02:17;;;;;;;12.88;3.70;;;23.10;58.40;;;;;;5025574;28;20018;-67
2022/07/14 08:04:43;;;;;;;26.02;4.93;;;23.00;58.40;;;;;;5025817;28;20088;-67
2022/07/14 08:07:08;;;;;;;24.42;5.25;;;23.00;58.60;;;;;;5026068;28;20017;-67
2022/07/14 08:09:34;;;;;;;20.60;5.05;;;23.00;58.80;;;;;;5025422;28;20022;-67
2022/07/14 08:11:59;;;;;;;26.73;4.60;;;23.00;58.70;;;;;;5025452;28;20018;-67
2022/07/14 08:17:09;;;;;;;16.45;4.32;;;23.10;58.70;;;;;;5025598;28;20609;-67
2022/07/14 08:19:35;;;;;;;13.75;4.28;;;23.00;58.60;;;;;;5024907;28;20052;-67
2022/07/14 08:22:01;;;;;;;11.43;3.60;;;23.10;58.60;;;;;;5025752;28;20378;-66
2022/07/14 08:24:28;;;;;;;9.00;3.40;;;23.10;59.30;;;;;;5024705;28;20045;-68
2022/07/14 08:26:54;;;;;;;7.93;4.22;;;23.10;58.60;;;;;;5025254;28;20056;-67
2022/07/14 08:29:19;;;;;;;15.93;4.32;;;23.00;58.50;;;;;;5024636;28;20406;-67
2022/07/14 08:31:45;;;;;;;14.35;4.28;;;23.00;58.60;;;;;;5025298;28;20056;-66
2022/07/14 08:34:11;;;;;;;13.13;3.83;;;23.10;58.80;;;;;;5007576;28;20044;-66
2022/07/14 08:36:37;;;;;;;15.98;3.70;;;23.10;59.40;;;;;;5024191;28;20036;-66
2022/07/14 08:39:05;;;;;;;9.15;3.78;;;23.10;59.00;;;;;;5024296;28;20692;-67
2022/07/14 08:41:31;;;;;;;10.35;3.78;;;23.10;58.90;;;;;;5024941;28;20087;-66
2022/07/14 08:43:57;;;;;;;12.15;3.10;;;23.10;58.80;;;;;;5013604;28;20448;-67
2022/07/14 08:46:22;;;;;;;5.68;3.38;;;23.10;58.90;;;;;;5024111;28;20083;-67
2022/07/14 08:48:48;;;;;;;12.93;3.30;;;23.10;59.00;;;;;;5007206;28;20036;-67
2022/07/14 08:51:13;;;;;;;8.70;3.15;;;23.10;59.10;;;;;;5003600;28;20075;-69
2022/07/14 08:53:39;;;;;;;6.43;3.03;;;23.10;59.00;;;;;;5005426;28;20113;-68
2022/07/14 08:56:04;;;;;;;10.45;3.30;;;23.10;59.00;;;;;;5020782;28;20061;-67
2022/07/14 08:58:30;;;;;;;12.60;3.92;;;23.10;59.10;;;;;;5024212;28;20038;-67
2022/07/14 09:00:55;;;;;;;15.23;3.35;;;23.10;59.00;;;;;;5023601;28;20449;-68
2022/07/14 09:03:21;;;;;;;7.07;3.25;;;23.10;59.00;;;;;;5023512;28;20044;-68
2022/07/14 09:05:47;;;;;;;7.43;3.88;;;23.10;58.60;;;;;;5023580;28;20026;-68
2022/07/14 09:08:13;;;;;;;10.50;3.53;;;23.10;58.70;;;;;;5023304;28;20157;-68
2022/07/14 09:10:39;;;;;;;10.10;3.45;;;23.10;59.00;;;;;;5007426;28;20087;-67
2022/07/14 09:13:21;;;;;;;10.50;3.08;;;23.10;59.10;;;;;;5024850;28;20033;-67
2022/07/14 09:15:47;;;;;;;9.15;3.38;;;23.10;59.10;;;;;;5023036;28;20029;-67
2022/07/14 09:18:21;;;;;;;9.15;3.05;;;23.10;59.10;;;;;;5025203;28;20484;-68
2022/07/14 09:20:47;;;;;;;9.70;3.97;;;23.10;59.10;;;;;;5025057;28;20025;-69
2022/07/14 09:23:12;;;;;;;4.85;2.60;;;23.10;59.00;;;;;;5024032;28;20029;-67
2022/07/14 09:25:38;;;;;;;5.43;2.85;;;23.10;58.90;;;;;;5026837;28;20025;-67
2022/07/14 09:28:04;;;;;;;12.50;3.28;;;23.10;58.90;;;;;;5023885;28;20029;-69
2022/07/14 09:30:29;;;;;;;11.15;3.30;;;23.10;58.80;;;;;;5023625;28;20064;-68
2022/07/14 09:33:02;;;;;;;6.97;3.00;;;23.10;58.80;;;;;;5024640;28;20044;-68
2022/07/14 09:35:34;;;;;;;5.53;3.10;;;23.10;58.80;;;;;;5023053;28;20274;-68
2022/07/14 09:38:00;;;;;;;5.97;2.97;;;23.20;59.00;;;;;;5023799;28;20392;-68
2022/07/14 09:40:30;;;;;;;6.07;3.03;;;23.20;58.90;;;;;;5022225;28;20037;-68
2022/07/14 09:42:59;;;;;;;4.28;2.70;;;23.10;59.50;;;;;;5022249;28;20040;-68
2022/07/14 09:45:27;;;;;;;5.65;2.80;;;23.20;58.90;;;;;;5023692;28;20036;-67
2022/07/14 09:48:09;;;;;;;7.15;2.90;;;23.20;58.90;;;;;;5023285;28;20033;-70
2022/07/14 09:50:38;;;;;;;6.90;3.42;;;23.20;58.90;;;;;;5021892;28;20026;-67
2022/07/14 09:53:28;;;;;;;7.13;2.67;;;23.20;59.50;;;;;;5023930;28;20033;-68
2022/07/14 09:56:01;;;;;;;7.82;3.20;;;23.20;58.80;;;;;;5023518;28;20030;-69
2022/07/14 09:58:29;;;;;;;8.63;3.17;;;23.20;58.80;;;;;;5023271;28;20060;-66
2022/07/14 10:00:56;;;;;;;6.85;3.22;;;23.20;58.80;;;;;;5023922;28;20417;-68
2022/07/14 10:03:22;;;;;;;7.28;4.38;;;23.20;59.00;;;;;;5024097;28;20038;-68
2022/07/14 10:05:48;;;;;;;8.75;3.80;;;23.20;58.50;;;;;;5022127;28;20030;-68
2022/07/14 10:08:13;;;;;;;19.58;7.78;;;23.10;59.10;;;;;;5022121;28;20033;-69
2022/07/14 10:10:39;;;;;;;23.83;8.40;;;23.20;59.20;;;;;;5022258;28;20028;-67
2022/07/14 10:13:05;;;;;;;34.40;13.00;;;23.20;59.00;;;;;;5022055;28;20505;-69
2022/07/14 10:15:31;;;;;;;56.28;21.63;;;23.20;58.90;;;;;;5023353;28;20034;-69
2022/07/14 10:17:56;;;;;;;38.45;14.32;;;23.20;58.90;;;;;;5023266;28;20083;-66
2022/07/14 10:20:22;;;;;;;50.40;18.65;;;23.30;58.70;;;;;;5005457;28;20078;-69
2022/07/14 10:22:47;;;;;;;297.20;179.75;;;23.30;59.30;;;;;;5022681;28;20119;-68
2022/07/14 10:25:13;;;;;;;367.77;234.65;;;23.30;61.00;;;;;;4989850;28;20445;-71
2022/07/14 10:27:39;;;;;;;310.60;194.02;;;23.40;62.70;;;;;;5023325;28;20029;-69
2022/07/14 10:30:05;;;;;;;290.55;176.07;;;23.40;61.80;;;;;;5023215;28;20352;-69
2022/07/14 10:32:49;;;;;;;273.13;153.48;;;23.40;60.60;;;;;;5023356;28;20033;-69
2022/07/14 10:35:26;;;;;;;198.45;119.15;;;23.40;59.90;;;;;;5021149;28;20108;-66
2022/07/14 10:38:07;;;;;;;74.38;44.05;;;23.40;60.20;;;;;;5022687;28;20076;-69
2022/07/14 10:40:54;;;;;;;141.35;85.45;;;23.40;60.50;;;;;;5021714;28;20115;-69
2022/07/14 10:43:24;;;;;;;179.93;105.63;;;23.30;60.20;;;;;;5022340;28;20417;-69
2022/07/14 10:45:51;;;;;;;107.07;63.53;;;23.30;59.60;;;;;;5021898;28;20068;-68
2022/07/14 10:48:32;;;;;;;85.05;48.60;;;23.30;59.80;;;;;;5021629;28;20568;-69
2022/07/14 10:51:17;;;;;;;64.35;38.95;;;23.30;59.90;;;;;;5003786;28;20080;-69
2022/07/14 10:54:09;;;;;;;64.65;42.42;;;23.30;59.60;;;;;;4991727;28;20026;-70
2022/07/14 10:56:35;;;;;;;75.97;42.50;;;23.30;59.50;;;;;;5005142;28;20037;-69
2022/07/14 10:59:25;;;;;;;43.65;24.55;;;23.30;59.40;;;;;;5020984;28;20037;-68
2022/07/14 11:02:12;;;;;;;39.95;23.95;;;23.30;59.50;;;;;;5021681;28;20041;-68
2022/07/14 11:05:00;;;;;;;35.13;21.65;;;23.30;59.60;;;;;;5004734;28;20524;-68
2022/07/14 11:07:47;;;;;;;37.70;23.17;;;23.30;59.30;;;;;;5022245;28;20418;-68
2022/07/14 11:10:38;;;;;;;31.98;18.73;;;23.30;59.20;;;;;;5021970;28;20087;-68
2022/07/14 11:13:04;;;;;;;31.13;13.15;;;23.30;59.40;;;;;;5021665;28;20541;-68
2022/07/14 11:15:42;;;;;;;29.63;10.23;;;23.30;59.50;;;;;;5022144;28;20073;-68
2022/07/14 11:18:17;;;;;;;29.38;8.52;;;23.30;59.40;;;;;;5004393;28;20036;-68
2022/07/14 11:20:49;;;;;;;22.35;6.93;;;23.30;59.80;;;;;;5021724;28;20514;-69
2022/07/14 11:23:16;;;;;;;12.43;5.32;;;23.20;59.60;;;;;;5021974;28;20038;-68
2022/07/14 11:25:41;;;;;;;12.77;5.50;;;23.20;59.40;;;;;;5021177;28;20026;-68
2022/07/14 11:28:27;;;;;;;15.25;5.35;;;23.20;59.40;;;;;;5020843;28;20049;-68
2022/07/14 11:31:13;;;;;;;10.60;4.43;;;23.20;59.40;;;;;;5020841;28;20034;-69
2022/07/14 11:36:24;;;;;;;7.45;4.13;;;23.20;59.50;;;;;;5021224;28;20556;-69
2022/07/14 11:38:49;;;;;;;4.68;3.20;;;23.20;59.70;;;;;;5020647;28;20033;-69
2022/07/14 11:41:15;;;;;;;4.40;3.33;;;23.20;59.70;;;;;;5020705;28;20052;-69
2022/07/14 11:43:42;;;;;;;5.60;3.33;;;23.20;59.20;;;;;;5021389;28;20461;-69
2022/07/14 11:46:15;;;;;;;7.10;3.05;;;23.20;59.50;;;;;;5020731;28;20677;-70
2022/07/14 11:48:51;;;;;;;6.88;3.10;;;23.20;59.40;;;;;;5022290;28;20068;-70
2022/07/14 11:51:27;;;;;;;8.07;3.25;;;23.20;60.10;;;;;;5020894;28;20124;-68
2022/07/14 11:54:01;;;;;;;5.53;3.00;;;23.30;59.50;;;;;;5001058;28;20030;-67
2022/07/14 11:56:28;;;;;;;7.10;2.97;;;23.30;59.20;;;;;;5002010;28;20037;-67
2022/07/14 11:58:56;;;;;;;6.78;2.78;;;23.30;59.10;;;;;;5015049;28;20164;-68
2022/07/14 12:01:22;;;;;;;4.90;3.05;;;23.30;59.20;;;;;;5019712;28;20045;-64
2022/07/14 12:03:48;;;;;;;7.38;2.88;;;23.30;59.10;;;;;;5021431;28;20281;-67
2022/07/14 12:06:14;;;;;;;7.00;2.95;;;23.30;59.10;;;;;;5021905;28;20025;-69
2022/07/14 12:08:41;;;;;;;23.17;4.35;;;23.30;59.00;;;;;;5022142;28;20622;-68
2022/07/14 12:11:09;;;;;;;19.50;3.90;;;23.30;59.30;;;;;;5023466;28;20566;-68
2022/07/14 12:13:53;;;;;;;14.75;4.18;;;23.40;59.10;;;;;;5025520;28;20037;-68
2022/07/14 12:16:19;;;;;;;12.82;4.45;;;23.30;59.20;;;;;;5025738;28;20559;-68
2022/07/14 12:18:44;;;;;;;11.57;3.75;;;23.40;59.20;;;;;;5027723;28;20029;-69
2022/07/14 12:21:10;;;;;;;4.20;3.15;;;23.30;59.00;;;;;;5028330;28;20039;-68
2022/07/14 12:23:55;;;;;;;10.25;3.92;;;23.30;59.00;;;;;;5028456;28;20037;-68
2022/07/14 12:26:22;;;;;;;8.02;3.25;;;23.30;59.00;;;;;;5026019;28;20554;-69
2022/07/14 12:28:49;;;;;;;8.82;3.20;;;23.30;58.90;;;;;;5029110;28;20060;-68
2022/07/14 12:31:14;;;;;;;6.28;3.13;;;23.30;58.80;;;;;;5012207;28;20033;-69
2022/07/14 12:33:40;;;;;;;8.98;3.20;;;23.30;58.90;;;;;;5026844;28;20022;-68
2022/07/14 12:36:12;;;;;;;6.13;3.20;;;23.30;59.40;;;;;;5026162;28;20506;-67
2022/07/14 12:38:38;;;;;;;7.85;2.85;;;23.30;58.80;;;;;;5025866;28;20034;-68
2022/07/14 12:41:03;;;;;;;4.07;2.83;;;23.30;58.90;;;;;;5007695;28;20038;-68
2022/07/14 12:43:39;;;;;;;5.65;3.17;;;23.30;59.00;;;;;;5023634;28;20068;-68
2022/07/14 12:46:10;;;;;;;7.22;3.10;;;23.30;59.10;;;;;;5007123;28;20379;-68
2022/07/14 12:48:54;;;;;;;9.10;3.63;;;23.30;59.10;;;;;;5024510;28;20034;-68
2022/07/14 12:51:37;;;;;;;5.03;3.05;;;23.30;59.00;;;;;;5025132;28;20033;-68
2022/07/14 12:54:08;;;;;;;5.68;3.47;;;23.30;59.00;;;;;;5023952;28;20030;-68
2022/07/14 12:56:37;;;;;;;3.95;2.90;;;23.30;59.00;;;;;;5024978;28;20033;-69
2022/07/14 12:59:05;;;;;;;4.93;3.42;;;23.30;59.00;;;;;;5023863;28;20034;-68
2022/07/14 13:01:31;;;;;;;5.47;2.85;;;23.40;59.00;;;;;;5024364;28;20076;-68